createdAt,value
2022-11-05T00:01:45.658Z,11.21
2022-11-05T00:05:06.800Z,11.39
2022-11-05T00:08:27.752Z,11.35
2022-11-05T00:11:49.012Z,11.24
2022-11-05T00:15:09.834Z,11.36
2022-11-05T00:18:12.369Z,11.37
2022-11-05T00:21:32.986Z,11.36
2022-11-05T00:24:54.121Z,11.34
2022-11-05T00:28:01.485Z,11.23
2022-11-05T00:31:06.697Z,11.21
2022-11-05T00:34:08.903Z,11.18
2022-11-05T00:37:11.382Z,11.03
2022-11-05T00:40:15.158Z,10.95
2022-11-05T00:43:36.226Z,10.90
2022-11-05T00:46:38.344Z,10.87
2022-11-05T00:49:40.935Z,10.73
2022-11-05T00:52:59.749Z,10.77
2022-11-05T00:56:10.584Z,10.74
2022-11-05T00:59:12.815Z,10.55
2022-11-05T01:02:15.348Z,10.60
2022-11-05T01:05:17.732Z,10.56
2022-11-05T01:08:22.418Z,10.50
2022-11-05T01:11:33.683Z,10.40
2022-11-05T01:14:36.318Z,10.44
2022-11-05T01:17:38.598Z,10.31
2022-11-05T01:20:43.580Z,10.43
2022-11-05T01:23:46.346Z,10.36
2022-11-05T01:26:48.923Z,10.25
2022-11-05T01:29:51.174Z,10.34
2022-11-05T01:32:53.749Z,10.01
2022-11-05T01:35:55.999Z,10.28
2022-11-05T01:38:58.696Z,10.26
2022-11-05T01:42:01.002Z,10.24
2022-11-05T01:45:19.559Z,10.12
2022-11-05T01:48:25.404Z,10.11
2022-11-05T01:51:28.816Z,10.25
2022-11-05T01:54:32.866Z,10.15
2022-11-05T01:57:35.783Z,10.14
2022-11-05T02:00:40.043Z,10.24
2022-11-05T02:03:44.553Z,10.26
2022-11-05T02:06:47.384Z,10.15
2022-11-05T02:10:10.665Z,10.25
2022-11-05T02:13:13.361Z,10.11
2022-11-05T02:16:41.432Z,10.20
2022-11-05T02:20:09.690Z,10.24
2022-11-05T02:23:12.184Z,10.23
2022-11-05T02:26:58.638Z,10.09
2022-11-05T02:30:38.515Z,10.19
2022-11-05T02:33:48.132Z,10.09
2022-11-05T02:36:56.300Z,10.17
2022-11-05T02:40:15.029Z,10.05
2022-11-05T02:43:23.509Z,10.11
2022-11-05T02:46:52.261Z,10.08
2022-11-05T02:50:03.456Z,10.03
2022-11-05T02:53:19.759Z,10.01
2022-11-05T02:56:32.273Z,9.98
2022-11-05T02:59:34.746Z,9.99
2022-11-05T03:02:39.396Z,9.85
2022-11-05T03:06:20.301Z,9.95
2022-11-05T03:10:00.285Z,9.89
2022-11-05T03:13:12.908Z,9.91
2022-11-05T03:16:21.945Z,9.91
2022-11-05T03:19:50.314Z,9.90
2022-11-05T03:23:04.380Z,9.91
2022-11-05T03:26:21.724Z,9.93
2022-11-05T03:29:33.443Z,9.87
2022-11-05T03:32:40.313Z,9.79
2022-11-05T03:35:47.861Z,9.92
2022-11-05T03:38:54.344Z,9.93
2022-11-05T03:41:57.849Z,9.94
2022-11-05T03:45:05.532Z,9.88
2022-11-05T03:48:11.812Z,9.77
2022-11-05T03:51:14.210Z,9.87
2022-11-05T03:54:16.719Z,9.90
2022-11-05T03:57:30.006Z,9.87
2022-11-05T04:00:33.041Z,9.84
2022-11-05T04:03:36.720Z,9.86
2022-11-05T04:06:57.921Z,9.72
2022-11-05T04:10:32.756Z,9.84
2022-11-05T04:13:35.229Z,9.84
2022-11-05T04:16:56.365Z,9.80
2022-11-05T04:20:17.407Z,9.73
2022-11-05T04:23:38.232Z,9.69
2022-11-05T04:26:46.271Z,9.74
2022-11-05T04:30:07.448Z,9.75
2022-11-05T04:33:15.731Z,9.74
2022-11-05T04:36:19.626Z,9.73
2022-11-05T04:39:21.887Z,9.72
2022-11-05T04:42:24.442Z,9.70
2022-11-05T04:45:30.178Z,9.59
2022-11-05T04:48:32.699Z,9.57
2022-11-05T04:51:34.964Z,9.55
2022-11-05T04:54:37.457Z,9.62
2022-11-05T04:57:39.874Z,9.51
2022-11-05T05:00:42.519Z,9.59
2022-11-05T05:03:47.159Z,9.45
2022-11-05T05:06:49.799Z,9.59
2022-11-05T05:09:52.675Z,9.62
2022-11-05T05:12:55.451Z,9.50
2022-11-05T05:15:57.765Z,9.62
2022-11-05T05:19:00.408Z,9.53
2022-11-05T05:22:02.740Z,9.54
2022-11-05T05:25:05.406Z,9.59
2022-11-05T05:28:07.584Z,9.56
2022-11-05T05:31:10.247Z,9.43
2022-11-05T05:34:14.188Z,9.55
2022-11-05T05:37:16.849Z,9.56
2022-11-05T05:40:19.065Z,9.52
2022-11-05T05:43:21.742Z,9.41
2022-11-05T05:46:23.963Z,9.39
2022-11-05T05:49:26.483Z,9.48
2022-11-05T05:52:28.691Z,9.35
2022-11-05T05:55:31.195Z,9.44
2022-11-05T05:58:38.789Z,9.43
2022-11-05T06:01:41.811Z,9.31
2022-11-05T06:04:44.396Z,9.41
2022-11-05T06:07:46.687Z,9.42
2022-11-05T06:10:52.749Z,9.43
2022-11-05T06:13:55.414Z,9.31
2022-11-05T06:16:57.894Z,9.42
2022-11-05T06:20:00.307Z,9.32
2022-11-05T06:23:02.826Z,9.48
2022-11-05T06:26:08.137Z,9.42
2022-11-05T06:29:10.929Z,9.50
2022-11-05T06:32:13.202Z,9.53
2022-11-05T06:35:15.862Z,9.55
2022-11-05T06:38:18.105Z,9.58
2022-11-05T06:41:20.743Z,9.57
2022-11-05T06:44:23.009Z,9.62
2022-11-05T06:47:25.731Z,9.66
2022-11-05T06:50:28.800Z,9.71
2022-11-05T06:53:31.984Z,9.69
2022-11-05T06:56:34.192Z,9.70
2022-11-05T06:59:40.703Z,9.74
2022-11-05T07:02:42.979Z,9.87
2022-11-05T07:05:49.339Z,9.96
2022-11-05T07:08:51.594Z,10.05
2022-11-05T07:11:55.071Z,10.06
2022-11-05T07:14:57.609Z,9.99
2022-11-05T07:18:01.151Z,10.21
2022-11-05T07:21:04.257Z,10.29
2022-11-05T07:24:07.442Z,10.28
2022-11-05T07:27:09.665Z,10.47
2022-11-05T07:30:12.692Z,10.43
2022-11-05T07:33:15.189Z,10.61
2022-11-05T07:36:17.815Z,10.63
2022-11-05T07:39:20.238Z,10.58
2022-11-05T07:42:22.784Z,10.71
2022-11-05T07:45:26.520Z,10.77
2022-11-05T07:48:28.890Z,10.75
2022-11-05T07:51:31.018Z,10.81
2022-11-05T07:54:33.539Z,10.77
2022-11-05T07:57:47.438Z,10.80
2022-11-05T08:00:50.200Z,10.70
2022-11-05T08:03:52.861Z,10.71
2022-11-05T08:06:55.073Z,10.88
2022-11-05T08:09:57.555Z,10.84
2022-11-05T08:13:00.133Z,10.92
2022-11-05T08:16:04.028Z,10.92
2022-11-05T08:19:06.453Z,10.98
2022-11-05T08:22:08.993Z,10.97
2022-11-05T08:25:12.714Z,10.90
2022-11-05T08:28:15.159Z,11.05
2022-11-05T08:31:18.189Z,11.10
2022-11-05T08:34:20.729Z,11.14
2022-11-05T08:37:23.174Z,11.16
2022-11-05T08:40:26.472Z,11.41
2022-11-05T08:43:28.704Z,11.53
2022-11-05T08:46:31.263Z,11.66
2022-11-05T08:49:33.579Z,11.68
2022-11-05T08:52:36.194Z,11.93
2022-11-05T08:55:47.496Z,12.08
2022-11-05T08:58:50.101Z,12.19
2022-11-05T09:01:53.121Z,12.21
2022-11-05T09:04:57.158Z,12.38
2022-11-05T09:08:01.582Z,12.27
2022-11-05T09:11:04.359Z,12.36
2022-11-05T09:14:06.611Z,12.32
2022-11-05T09:17:20.594Z,12.29
2022-11-05T09:20:23.247Z,12.27
2022-11-05T09:23:25.899Z,12.25
2022-11-05T09:26:28.223Z,12.27
2022-11-05T09:29:30.819Z,12.16
2022-11-05T09:32:33.231Z,12.36
2022-11-05T09:35:40.101Z,12.22
2022-11-05T09:38:42.296Z,12.27
2022-11-05T09:41:46.984Z,12.33
2022-11-05T09:44:53.762Z,12.55
2022-11-05T09:48:01.347Z,12.65
2022-11-05T09:51:05.734Z,12.94
2022-11-05T09:54:12.169Z,13.39
2022-11-05T09:57:20.572Z,13.80
2022-11-05T10:00:23.082Z,14.06
2022-11-05T10:03:28.885Z,14.21
2022-11-05T10:06:31.619Z,14.19
2022-11-05T10:09:47.905Z,14.29
2022-11-05T10:13:15.959Z,14.27
2022-11-05T10:16:32.466Z,14.72
2022-11-05T10:19:54.634Z,14.96
2022-11-05T10:23:01.849Z,15.23
2022-11-05T10:26:09.303Z,15.41
2022-11-05T10:29:15.975Z,15.31
2022-11-05T10:32:36.062Z,15.30
2022-11-05T10:35:48.707Z,15.08
2022-11-05T10:38:51.429Z,15.16
2022-11-05T10:42:15.726Z,15.22
2022-11-05T10:45:35.277Z,15.18
2022-11-05T10:48:59.810Z,14.99
2022-11-05T10:52:21.984Z,15.02
2022-11-05T10:55:29.507Z,14.84
2022-11-05T10:58:35.277Z,14.75
2022-11-05T11:01:37.873Z,14.75
2022-11-05T11:04:40.605Z,14.69
2022-11-05T11:07:43.645Z,14.77
2022-11-05T11:10:51.866Z,14.83
2022-11-05T11:13:57.114Z,14.95
2022-11-05T11:17:27.074Z,15.02
2022-11-05T11:20:33.237Z,15.01
2022-11-05T11:23:40.269Z,15.01
2022-11-05T11:26:42.837Z,14.96
2022-11-05T11:29:51.230Z,14.95
2022-11-05T11:32:59.655Z,15.16
2022-11-05T11:36:02.537Z,15.32
2022-11-05T11:39:06.732Z,15.45
2022-11-05T11:42:19.844Z,15.66
2022-11-05T11:45:51.867Z,15.75
2022-11-05T11:48:54.349Z,15.67
2022-11-05T11:52:03.535Z,15.64
2022-11-05T11:55:11.505Z,15.61
2022-11-05T11:58:14.079Z,15.57
2022-11-05T12:01:28.440Z,15.53
2022-11-05T12:04:56.040Z,15.43
2022-11-05T12:08:06.727Z,15.38
2022-11-05T12:11:21.100Z,15.22
2022-11-05T12:14:46.194Z,15.08
2022-11-05T12:18:19.712Z,15.11
2022-11-05T12:21:51.949Z,15.06
2022-11-05T12:25:14.587Z,14.97
2022-11-05T12:29:04.788Z,14.92
2022-11-05T12:32:09.197Z,14.80
2022-11-05T12:36:00.294Z,14.63
2022-11-05T12:39:08.466Z,14.46
2022-11-05T12:42:32.027Z,14.50
2022-11-05T12:45:47.353Z,14.35
2022-11-05T12:49:24.196Z,14.37
2022-11-05T12:52:45.336Z,14.30
2022-11-05T12:55:49.701Z,14.22
2022-11-05T12:59:00.524Z,14.19
2022-11-05T13:02:22.389Z,14.14
2022-11-05T13:06:09.342Z,14.02
2022-11-05T13:09:14.831Z,14.00
2022-11-05T13:12:20.741Z,13.96
2022-11-05T13:15:52.115Z,13.86
2022-11-05T13:19:34.842Z,13.86
2022-11-05T13:22:44.538Z,13.89
2022-11-05T13:25:53.467Z,13.80
2022-11-05T13:29:12.866Z,13.66
2022-11-05T13:32:36.196Z,13.59
2022-11-05T13:35:45.246Z,13.69
2022-11-05T13:39:00.957Z,13.50
2022-11-05T13:42:30.593Z,13.54
2022-11-05T13:45:39.125Z,13.54
2022-11-05T13:48:47.132Z,13.51
2022-11-05T13:51:56.881Z,13.44
2022-11-05T13:55:26.211Z,13.39
2022-11-05T13:58:50.551Z,13.19
2022-11-05T14:01:59.386Z,13.20
2022-11-05T14:05:03.146Z,13.08
2022-11-05T14:08:18.813Z,13.14
2022-11-05T14:11:23.469Z,13.08
2022-11-05T14:14:29.237Z,13.07
2022-11-05T14:17:52.105Z,13.02
2022-11-05T14:21:00.366Z,12.89
2022-11-05T14:24:21.228Z,12.94
2022-11-05T14:27:29.425Z,12.78
2022-11-05T14:30:44.981Z,12.86
2022-11-05T14:34:12.385Z,12.72
2022-11-05T14:37:23.832Z,12.82
2022-11-05T14:40:29.073Z,12.75
2022-11-05T14:43:33.887Z,12.76
2022-11-05T14:46:45.696Z,12.58
2022-11-05T14:49:55.386Z,12.64
2022-11-05T14:53:02.706Z,12.62
2022-11-05T14:56:05.355Z,12.56
2022-11-05T14:59:28.292Z,12.54
2022-11-05T15:02:38.647Z,12.51
2022-11-05T15:05:51.342Z,12.30
2022-11-05T15:09:07.245Z,12.41
2022-11-05T15:12:34.352Z,12.39
2022-11-05T15:15:44.166Z,12.23
2022-11-05T15:18:47.288Z,12.25
2022-11-05T15:21:51.307Z,12.20
2022-11-05T15:24:54.536Z,12.28
2022-11-05T15:28:03.226Z,12.14
2022-11-05T15:31:22.544Z,12.23
2022-11-05T15:34:31.812Z,12.20
2022-11-05T15:37:34.031Z,12.18
2022-11-05T15:40:36.541Z,12.18
2022-11-05T15:43:48.117Z,12.10
2022-11-05T15:47:15.475Z,12.15
2022-11-05T15:50:17.862Z,12.05
2022-11-05T15:57:27.372Z,12.07
2022-11-05T16:00:33.155Z,11.95
2022-11-05T16:03:39.381Z,12.03
2022-11-05T16:06:44.491Z,11.96
2022-11-05T16:09:59.387Z,12.00
2022-11-05T16:13:32.627Z,11.90
2022-11-05T16:16:35.278Z,11.96
2022-11-05T16:19:41.485Z,11.84
2022-11-05T16:22:45.324Z,11.94
2022-11-05T16:25:47.968Z,11.93
2022-11-05T16:28:51.621Z,11.90
2022-11-05T16:31:55.614Z,11.76
2022-11-05T16:35:05.723Z,11.84
2022-11-05T16:38:11.774Z,11.84
2022-11-05T16:41:16.461Z,11.81
2022-11-05T16:44:18.729Z,11.77
2022-11-05T16:47:22.417Z,11.76
2022-11-05T16:50:32.159Z,11.69
2022-11-05T16:53:34.656Z,11.62
2022-11-05T16:56:37.094Z,11.59
2022-11-05T16:59:39.680Z,11.68
2022-11-05T17:02:42.275Z,11.66
2022-11-05T17:05:44.983Z,11.63
2022-11-05T17:08:48.386Z,11.62
2022-11-05T17:11:50.995Z,11.55
2022-11-05T17:14:53.339Z,11.56
2022-11-05T17:17:56.770Z,11.52
2022-11-05T17:20:59.065Z,11.40
2022-11-05T17:24:01.697Z,11.41
2022-11-05T17:27:03.914Z,11.45
2022-11-05T17:30:07.304Z,11.37
2022-11-05T17:33:13.139Z,11.36
2022-11-05T17:36:16.532Z,11.42
2022-11-05T17:39:20.009Z,11.40
2022-11-05T17:42:22.615Z,11.37
2022-11-05T17:45:24.908Z,11.36
2022-11-05T17:48:27.457Z,11.33
2022-11-05T17:51:29.817Z,11.30
2022-11-05T17:54:32.787Z,11.23
2022-11-05T17:57:34.998Z,11.24
2022-11-05T18:00:39.419Z,11.25
2022-11-05T18:03:41.960Z,11.22
2022-11-05T18:06:44.239Z,11.09
2022-11-05T18:09:47.858Z,11.15
2022-11-05T18:12:50.990Z,11.13
2022-11-05T18:15:54.315Z,11.12
2022-11-05T18:18:57.104Z,11.12
2022-11-05T18:21:59.637Z,11.01
2022-11-05T18:25:01.934Z,11.10
2022-11-05T18:28:04.562Z,11.07
2022-11-05T18:31:18.349Z,11.04
2022-11-05T18:34:21.198Z,10.99
2022-11-05T18:37:23.461Z,11.02
2022-11-05T18:40:26.035Z,11.13
2022-11-05T18:43:28.961Z,10.95
2022-11-05T18:49:55.530Z,11.14
2022-11-05T18:52:58.117Z,11.13
2022-11-05T18:56:00.387Z,11.14
2022-11-05T18:59:34.566Z,11.03
2022-11-05T19:02:25.876Z,11.02
2022-11-05T19:05:30.347Z,11.04
2022-11-05T19:08:33.367Z,11.13
2022-11-05T19:11:36.695Z,11.13
2022-11-05T19:14:39.128Z,11.13
2022-11-05T19:17:41.652Z,11.02
2022-11-05T19:20:44.178Z,11.11
2022-11-05T19:23:46.759Z,11.13
2022-11-05T19:26:49.057Z,11.00
2022-11-05T19:29:52.199Z,11.13
2022-11-05T19:32:54.438Z,11.13
2022-11-05T19:35:57.616Z,11.12
2022-11-05T19:39:02.197Z,11.11
2022-11-05T19:42:05.113Z,11.07
2022-11-05T19:45:23.467Z,11.06
2022-11-05T19:48:31.466Z,10.97
2022-11-05T19:51:34.377Z,11.05
2022-11-05T19:54:37.312Z,10.98
2022-11-05T19:57:39.610Z,11.09
2022-11-05T20:00:42.216Z,10.96
2022-11-05T20:03:45.090Z,11.00
2022-11-05T20:06:47.395Z,11.09
2022-11-05T20:09:50.131Z,11.09
2022-11-05T20:12:52.489Z,11.08
2022-11-05T20:15:55.542Z,11.06
2022-11-05T20:18:57.998Z,11.05
2022-11-05T20:22:00.824Z,11.06
2022-11-05T20:25:03.223Z,11.04
2022-11-05T20:28:05.864Z,11.04
2022-11-05T20:31:10.215Z,11.00
2022-11-05T20:34:13.113Z,11.00
2022-11-05T20:37:15.327Z,11.11
2022-11-05T20:40:17.856Z,11.08
2022-11-05T20:43:20.345Z,10.99
2022-11-05T20:46:23.378Z,11.09
2022-11-05T20:49:26.123Z,10.99
2022-11-05T20:52:28.735Z,11.10
2022-11-05T20:55:30.969Z,10.99
2022-11-05T20:58:33.558Z,11.09
2022-11-05T21:01:35.978Z,11.09
2022-11-05T21:04:42.641Z,11.10
2022-11-05T21:07:45.018Z,10.97
2022-11-05T21:10:51.226Z,11.00
2022-11-05T21:13:54.792Z,10.94
2022-11-05T21:16:57.423Z,11.02
2022-11-05T21:19:59.663Z,11.02
2022-11-05T21:23:02.165Z,10.93
2022-11-05T21:26:06.129Z,11.00
2022-11-05T21:29:08.682Z,10.94
2022-11-05T21:32:11.692Z,11.02
2022-11-05T21:35:14.374Z,10.91
2022-11-05T21:38:17.952Z,11.01
2022-11-05T21:41:20.555Z,10.87
2022-11-05T21:44:22.845Z,10.97
2022-11-05T21:47:28.052Z,10.99
2022-11-05T21:50:48.825Z,10.91
2022-11-05T21:54:13.170Z,11.01
2022-11-05T21:57:36.914Z,11.01
2022-11-05T22:00:39.502Z,11.01
2022-11-05T22:03:42.085Z,10.99
2022-11-05T22:06:44.800Z,10.99
2022-11-05T22:09:48.102Z,10.87
2022-11-05T22:12:50.424Z,10.84
2022-11-05T22:15:56.387Z,10.98
2022-11-05T22:18:59.165Z,10.93
2022-11-05T22:22:01.824Z,10.93
2022-11-05T22:25:04.799Z,10.87
2022-11-05T22:28:07.329Z,10.85
2022-11-05T22:31:17.417Z,10.91
2022-11-05T22:34:20.696Z,10.90
2022-11-05T22:37:22.950Z,10.78
2022-11-05T22:40:25.474Z,10.88
2022-11-05T22:43:27.739Z,10.74
2022-11-05T22:46:30.943Z,10.89
2022-11-05T22:49:33.404Z,10.89
2022-11-05T22:52:36.129Z,10.86
2022-11-05T22:55:41.592Z,10.86
2022-11-05T22:58:48.857Z,10.84
2022-11-05T23:01:51.190Z,10.81
2022-11-05T23:04:53.968Z,10.85
2022-11-05T23:08:15.450Z,10.87
2022-11-05T23:11:38.395Z,10.84
2022-11-05T23:14:40.635Z,10.74
2022-11-05T23:18:01.947Z,10.80
2022-11-05T23:21:23.327Z,10.81
2022-11-05T23:24:25.855Z,10.70
2022-11-05T23:27:33.859Z,10.69
2022-11-05T23:31:01.104Z,10.73
2022-11-05T23:34:03.420Z,10.74
2022-11-05T23:37:25.463Z,10.84
2022-11-05T23:40:30.715Z,10.80
2022-11-05T23:43:51.634Z,10.81
2022-11-05T23:47:12.581Z,10.83
2022-11-05T23:50:15.204Z,10.82
2022-11-05T23:53:17.781Z,10.85
2022-11-05T23:56:20.416Z,10.82
2022-11-05T23:59:22.764Z,10.77
